Time;durP1;ratioP1;P1;durP2;ratioP2;P2;SDS_P1;SDS_P2;PMS_P1;PMS_P2;Temp;Humidity;BMP_temperature;BMP_pressure;BME280_temperature;BME280_humidity;BME280_pressure;Samples;Min_cycle;Max_cycle;Signal;HPM_P1;HPM_P2
2023/08/24 00:02:10;;;;;;;10.27;4.50;;;14.50;99.90;;;;;;5091042;28;20040;-67
2023/08/24 00:04:37;;;;;;;6.90;3.67;;;14.50;99.90;;;;;;5057229;28;20046;-67
2023/08/24 00:07:03;;;;;;;8.20;4.53;;;14.50;99.90;;;;;;5073548;28;20070;-66
2023/08/24 00:09:29;;;;;;;8.32;4.75;;;14.50;99.90;;;;;;5073911;28;20040;-66
2023/08/24 00:11:55;;;;;;;8.45;4.68;;;14.50;99.90;;;;;;5074357;28;20051;-66
2023/08/24 00:14:21;;;;;;;8.40;4.45;;;14.50;99.90;;;;;;5073256;28;20107;-66
2023/08/24 00:16:46;;;;;;;7.25;4.68;;;14.50;99.90;;;;;;5074033;28;20115;-66
2023/08/24 00:19:12;;;;;;;6.00;3.83;;;14.50;99.90;;;;;;5074114;28;20036;-67
2023/08/24 00:21:38;;;;;;;7.05;3.95;;;14.50;99.90;;;;;;5091307;28;20111;-67
2023/08/24 00:24:04;;;;;;;9.73;4.25;;;14.50;99.90;;;;;;5092395;28;20089;-67
2023/08/24 00:26:30;;;;;;;8.30;4.85;;;14.50;99.90;;;;;;5073453;28;20446;-66
2023/08/24 00:28:56;;;;;;;8.45;4.25;;;14.50;99.90;;;;;;5056564;28;20044;-67
2023/08/24 00:31:21;;;;;;;8.63;4.57;;;14.50;99.90;;;;;;5073874;28;20173;-66
2023/08/24 00:33:47;;;;;;;7.82;4.97;;;14.50;99.90;;;;;;5091807;28;20048;-66
2023/08/24 00:36:13;;;;;;;10.10;4.93;;;14.50;99.90;;;;;;5073065;28;20078;-67
2023/08/24 00:38:38;;;;;;;9.95;5.22;;;14.50;99.90;;;;;;5073517;28;20524;-66
2023/08/24 00:41:04;;;;;;;9.85;4.70;;;14.60;99.90;;;;;;5074095;28;20040;-66
2023/08/24 00:43:30;;;;;;;8.13;5.40;;;14.60;99.90;;;;;;5057175;28;20044;-67
2023/08/24 00:46:00;;;;;;;10.65;5.35;;;14.60;99.90;;;;;;5077953;28;20046;-66
2023/08/24 00:48:28;;;;;;;7.43;4.32;;;14.60;99.90;;;;;;5077944;28;20388;-66
2023/08/24 00:50:55;;;;;;;8.10;5.13;;;14.60;99.90;;;;;;5076868;28;20043;-67
2023/08/24 00:53:24;;;;;;;8.43;5.40;;;14.70;99.90;;;;;;5077670;28;20044;-66
2023/08/24 00:55:49;;;;;;;10.43;5.50;;;14.70;99.90;;;;;;5095914;28;20047;-67
2023/08/24 00:58:16;;;;;;;8.40;4.72;;;14.70;99.90;;;;;;5095048;28;20484;-66
2023/08/24 01:00:43;;;;;;;10.02;5.35;;;14.70;99.90;;;;;;5077543;28;20044;-66
2023/08/24 01:03:08;;;;;;;10.25;5.07;;;14.70;99.90;;;;;;5077271;28;20115;-67
2023/08/24 01:05:34;;;;;;;11.88;6.65;;;14.70;99.90;;;;;;5077110;28;20136;-67
2023/08/24 01:08:00;;;;;;;9.77;6.13;;;14.80;99.90;;;;;;5095566;28;20031;-66
2023/08/24 01:10:35;;;;;;;10.27;5.03;;;14.80;99.90;;;;;;5076806;28;20078;-67
2023/08/24 01:13:09;;;;;;;12.73;7.18;;;14.80;99.90;;;;;;5077895;28;20040;-67
2023/08/24 01:16:00;;;;;;;10.30;5.70;;;14.80;99.90;;;;;;5094807;28;20063;-67
2023/08/24 01:18:27;;;;;;;8.63;5.32;;;14.90;99.90;;;;;;5076600;28;20049;-66
2023/08/24 01:20:57;;;;;;;10.13;6.13;;;14.90;99.90;;;;;;5077418;28;20089;-67
2023/08/24 01:23:41;;;;;;;10.27;6.07;;;14.90;99.90;;;;;;5060046;28;20047;-67
2023/08/24 01:26:11;;;;;;;9.57;6.10;;;15.00;99.90;;;;;;5076270;28;20095;-66
2023/08/24 01:28:37;;;;;;;8.55;6.03;;;14.90;99.90;;;;;;5076966;28;20122;-67
2023/08/24 01:31:05;;;;;;;10.73;6.22;;;15.00;99.90;;;;;;5077307;28;20038;-67
2023/08/24 01:33:31;;;;;;;9.98;6.30;;;15.00;99.90;;;;;;5075992;28;20024;-67
2023/08/24 01:35:57;;;;;;;11.05;6.93;;;15.00;99.90;;;;;;5077466;28;20044;-67
2023/08/24 01:38:23;;;;;;;9.63;6.60;;;15.00;99.90;;;;;;5076115;28;20450;-67
2023/08/24 01:40:57;;;;;;;11.38;6.65;;;15.00;99.90;;;;;;5094880;28;20036;-67
2023/08/24 01:43:27;;;;;;;;;;;15.00;99.90;;;;;;5060517;28;20115;-67
2023/08/24 01:45:54;;;;;;;12.73;7.28;;;15.00;99.90;;;;;;5076110;28;19974;-66
2023/08/24 01:48:21;;;;;;;10.15;5.93;;;14.90;99.90;;;;;;5076742;28;20028;-67
2023/08/24 01:50:48;;;;;;;11.82;6.65;;;15.00;99.90;;;;;;5094541;28;20040;-67
2023/08/24 01:53:13;;;;;;;11.30;6.30;;;15.10;99.90;;;;;;5076030;28;20516;-66
2023/08/24 01:55:39;;;;;;;10.05;6.90;;;15.10;99.90;;;;;;5076744;28;20091;-67
2023/08/24 01:58:05;;;;;;;10.73;6.75;;;15.10;99.90;;;;;;5076350;28;20036;-67
2023/08/24 02:00:30;;;;;;;10.52;6.15;;;15.10;99.90;;;;;;5059038;28;20040;-67
2023/08/24 02:02:56;;;;;;;11.82;6.93;;;15.20;99.90;;;;;;5094668;28;20040;-67
2023/08/24 02:05:24;;;;;;;11.50;7.00;;;15.20;99.90;;;;;;5094219;28;20150;-67
2023/08/24 02:07:50;;;;;;;11.50;6.47;;;15.20;99.90;;;;;;5093732;28;20395;-67
2023/08/24 02:10:15;;;;;;;9.52;5.82;;;15.20;99.90;;;;;;5059694;28;20119;-67
2023/08/24 02:12:41;;;;;;;11.20;6.00;;;15.20;99.90;;;;;;5094440;28;20071;-66
2023/08/24 02:15:07;;;;;;;11.30;6.20;;;15.20;99.90;;;;;;5093276;28;20032;-67
2023/08/24 02:17:33;;;;;;;10.35;6.85;;;15.20;99.90;;;;;;5076157;28;20040;-67
2023/08/24 02:19:59;;;;;;;12.13;7.10;;;15.30;99.90;;;;;;5094292;28;20119;-66
2023/08/24 02:22:24;;;;;;;12.93;7.00;;;15.30;99.90;;;;;;5075063;28;20158;-67
2023/08/24 02:24:51;;;;;;;12.02;6.72;;;15.30;99.90;;;;;;5076070;28;20097;-67
2023/08/24 02:27:16;;;;;;;11.02;7.05;;;15.30;99.90;;;;;;5075977;28;20139;-67
2023/08/24 02:29:42;;;;;;;10.13;7.10;;;15.30;99.90;;;;;;5075111;28;20528;-67
2023/08/24 02:32:08;;;;;;;11.07;6.57;;;15.30;99.90;;;;;;5076016;28;20044;-67
2023/08/24 02:34:33;;;;;;;10.32;6.68;;;15.30;99.90;;;;;;5075781;28;20071;-66
2023/08/24 02:36:59;;;;;;;11.57;6.53;;;15.30;99.90;;;;;;5075238;28;20497;-67
2023/08/24 02:39:25;;;;;;;12.02;7.00;;;15.30;99.90;;;;;;5075630;28;20119;-67
2023/08/24 02:41:51;;;;;;;14.02;6.90;;;15.30;99.90;;;;;;5075001;28;20505;-66
2023/08/24 02:44:16;;;;;;;15.02;7.13;;;15.30;99.90;;;;;;5075730;28;20393;-67
2023/08/24 02:46:44;;;;;;;12.32;7.13;;;15.30;99.90;;;;;;5093741;28;20038;-67
2023/08/24 02:49:10;;;;;;;13.18;7.55;;;15.30;99.90;;;;;;5057825;28;20131;-66
2023/08/24 02:51:36;;;;;;;10.93;6.85;;;15.30;99.90;;;;;;5093094;28;20084;-67
2023/08/24 02:54:02;;;;;;;11.65;6.90;;;15.30;99.90;;;;;;5093910;28;20044;-67
2023/08/24 02:56:27;;;;;;;12.30;6.80;;;15.30;99.90;;;;;;5092575;28;20055;-67
2023/08/24 02:58:54;;;;;;;10.90;7.53;;;15.20;99.90;;;;;;5093780;28;20040;-66
2023/08/24 03:01:19;;;;;;;10.93;7.00;;;15.20;99.90;;;;;;5075296;28;20515;-67
2023/08/24 03:03:45;;;;;;;14.73;6.88;;;15.20;99.90;;;;;;5092158;28;20394;-67
2023/08/24 03:06:11;;;;;;;12.90;8.60;;;15.20;99.90;;;;;;5074651;28;20050;-66
2023/08/24 03:08:36;;;;;;;10.85;6.57;;;15.20;99.90;;;;;;5093315;28;20032;-66
2023/08/24 03:11:02;;;;;;;10.68;7.38;;;15.10;99.90;;;;;;5057893;28;20505;-67
2023/08/24 03:13:30;;;;;;;13.80;8.00;;;15.10;99.90;;;;;;5074463;28;20082;-67
2023/08/24 03:15:56;;;;;;;12.43;8.50;;;15.00;99.90;;;;;;5075269;28;20427;-67
2023/08/24 03:18:21;;;;;;;12.18;6.95;;;15.00;99.90;;;;;;5074045;28;20066;-67
2023/08/24 03:20:48;;;;;;;9.60;6.78;;;15.00;99.90;;;;;;5075313;28;20375;-67
2023/08/24 03:23:15;;;;;;;14.90;8.10;;;15.00;99.90;;;;;;5074957;28;20089;-67
2023/08/24 03:25:42;;;;;;;9.85;7.18;;;14.90;99.90;;;;;;5073786;28;20484;-67
2023/08/24 03:28:09;;;;;;;11.70;7.32;;;15.00;99.90;;;;;;5092868;28;20066;-67
2023/08/24 03:30:39;;;;;;;10.70;7.22;;;15.00;99.90;;;;;;5092861;28;20501;-66
2023/08/24 03:33:06;;;;;;;11.75;7.65;;;15.00;99.90;;;;;;5057259;28;20086;-67
2023/08/24 03:35:32;;;;;;;14.52;8.23;;;15.00;99.90;;;;;;5093096;28;20040;-66
2023/08/24 03:37:58;;;;;;;12.80;8.52;;;15.00;99.90;;;;;;5073651;28;20120;-67
2023/08/24 03:40:24;;;;;;;10.27;8.02;;;15.00;99.90;;;;;;5092800;28;20110;-66
2023/08/24 03:42:50;;;;;;;11.00;7.53;;;15.10;99.90;;;;;;5074609;28;20044;-66
2023/08/24 03:45:16;;;;;;;14.23;9.00;;;15.10;99.90;;;;;;5073473;28;20493;-66
2023/08/24 03:47:42;;;;;;;12.48;8.48;;;15.10;99.90;;;;;;5074216;28;20078;-67
2023/08/24 03:50:08;;;;;;;10.85;7.00;;;15.10;99.90;;;;;;5074277;28;20064;-66
2023/08/24 03:52:34;;;;;;;13.15;8.57;;;15.10;99.90;;;;;;5091552;28;20477;-66
2023/08/24 03:55:00;;;;;;;13.43;8.05;;;15.10;99.90;;;;;;5075045;28;20078;-66
2023/08/24 03:57:25;;;;;;;11.13;7.45;;;15.10;99.90;;;;;;5074447;28;20073;-67
2023/08/24 03:59:51;;;;;;;13.38;8.25;;;15.10;99.90;;;;;;5073721;28;20047;-67
2023/08/24 04:02:17;;;;;;;15.30;9.20;;;15.00;99.90;;;;;;5057215;28;20052;-67
2023/08/24 04:04:43;;;;;;;13.18;8.15;;;15.00;99.90;;;;;;5057511;28;20052;-67
2023/08/24 04:07:08;;;;;;;13.82;8.40;;;15.00;99.90;;;;;;5073630;28;20043;-66
2023/08/24 04:09:34;;;;;;;13.65;8.20;;;15.10;99.90;;;;;;5057753;28;20104;-66
2023/08/24 04:12:00;;;;;;;14.05;8.35;;;15.10;99.90;;;;;;5074114;28;20032;-67
2023/08/24 04:14:25;;;;;;;12.73;8.00;;;15.00;99.90;;;;;;5073506;28;20040;-67
2023/08/24 04:16:52;;;;;;;10.80;7.93;;;15.10;99.90;;;;;;5057367;28;20150;-67
2023/08/24 04:19:17;;;;;;;12.70;8.10;;;15.10;99.90;;;;;;5072858;28;20047;-67
2023/08/24 04:21:43;;;;;;;11.98;8.00;;;15.10;99.90;;;;;;5060678;28;20047;-67
2023/08/24 04:24:09;;;;;;;14.65;9.85;;;15.00;99.90;;;;;;5065563;28;20047;-67
2023/08/24 04:26:35;;;;;;;12.30;7.63;;;15.00;99.90;;;;;;5089246;28;20040;-67
2023/08/24 04:29:00;;;;;;;11.73;7.97;;;15.00;99.90;;;;;;5072921;28;20032;-66
2023/08/24 04:31:26;;;;;;;11.70;8.57;;;15.00;99.90;;;;;;5092144;28;20067;-67
2023/08/24 04:33:52;;;;;;;10.35;7.43;;;15.00;99.90;;;;;;5057729;28;20050;-66
2023/08/24 04:36:17;;;;;;;12.45;8.60;;;14.90;99.90;;;;;;5055856;28;20048;-66
2023/08/24 04:38:43;;;;;;;12.15;7.18;;;14.90;99.90;;;;;;5074000;28;20070;-66
2023/08/24 04:41:11;;;;;;;10.73;7.82;;;14.90;99.90;;;;;;5073913;28;20048;-67
2023/08/24 04:43:36;;;;;;;13.30;8.75;;;14.90;99.90;;;;;;5072779;28;20489;-67
2023/08/24 04:46:02;;;;;;;11.30;8.00;;;14.90;99.90;;;;;;5073590;28;20074;-67
2023/08/24 04:48:32;;;;;;;14.38;9.32;;;14.90;99.90;;;;;;5072523;28;20036;-66
2023/08/24 04:50:58;;;;;;;12.68;8.00;;;14.80;99.90;;;;;;5073657;28;20086;-67
2023/08/24 04:53:24;;;;;;;12.95;8.88;;;14.90;99.90;;;;;;5073407;28;20477;-66
2023/08/24 04:55:50;;;;;;;15.55;9.00;;;14.80;99.90;;;;;;5072561;28;20047;-66
2023/08/24 04:58:16;;;;;;;16.70;9.07;;;14.80;99.90;;;;;;5073442;28;20040;-66
2023/08/24 05:00:42;;;;;;;12.50;8.25;;;14.90;99.90;;;;;;5072906;28;20480;-66
2023/08/24 05:03:08;;;;;;;15.38;8.75;;;14.90;99.90;;;;;;5072817;28;20040;-66
2023/08/24 05:05:35;;;;;;;13.07;9.02;;;14.90;99.90;;;;;;5073268;28;20378;-67
2023/08/24 05:08:02;;;;;;;15.25;8.02;;;14.90;99.90;;;;;;5073517;28;20067;-66
2023/08/24 05:10:31;;;;;;;12.07;8.48;;;14.90;99.90;;;;;;5055942;28;20404;-66
2023/08/24 05:12:57;;;;;;;10.43;8.45;;;15.00;99.90;;;;;;5056680;28;20028;-66
2023/08/24 05:15:23;;;;;;;15.45;8.85;;;15.00;99.90;;;;;;5072898;28;20039;-67
2023/08/24 05:17:50;;;;;;;10.73;7.88;;;15.00;99.90;;;;;;5072689;28;20039;-66
2023/08/24 05:20:15;;;;;;;11.27;7.80;;;15.00;99.90;;;;;;5073780;28;20433;-66
2023/08/24 05:22:41;;;;;;;11.95;8.43;;;15.10;99.90;;;;;;5086217;28;20111;-67
2023/08/24 05:25:07;;;;;;;12.30;8.25;;;15.00;99.90;;;;;;5035982;28;20131;-66
2023/08/24 05:27:33;;;;;;;12.93;8.73;;;15.10;99.90;;;;;;5072970;28;20047;-67
2023/08/24 05:29:58;;;;;;;9.90;7.72;;;15.10;99.90;;;;;;5074519;28;20114;-67
2023/08/24 05:32:24;;;;;;;12.48;7.68;;;15.10;99.90;;;;;;5059345;28;20040;-67
2023/08/24 05:34:50;;;;;;;10.30;7.00;;;15.10;99.90;;;;;;5076719;28;20036;-67
2023/08/24 05:37:16;;;;;;;12.23;7.43;;;15.10;99.90;;;;;;5076712;28;20114;-66
2023/08/24 05:39:42;;;;;;;11.00;8.00;;;15.10;99.90;;;;;;5093858;28;20116;-66
2023/08/24 05:42:11;;;;;;;12.80;7.78;;;15.10;99.90;;;;;;5072649;28;20123;-67
2023/08/24 05:44:36;;;;;;;11.15;7.38;;;15.10;99.90;;;;;;5075666;28;20032;-66
2023/08/24 05:47:02;;;;;;;13.90;7.30;;;15.20;99.90;;;;;;5076228;28;20093;-66
2023/08/24 05:49:28;;;;;;;12.23;8.45;;;15.30;99.90;;;;;;5094473;28;20040;-67
2023/08/24 05:51:54;;;;;;;11.15;8.48;;;15.30;99.90;;;;;;5093737;28;20163;-67
2023/08/24 05:54:19;;;;;;;21.90;9.40;;;15.40;99.90;;;;;;5076860;28;20044;-66
2023/08/24 05:56:46;;;;;;;13.00;8.60;;;15.40;99.90;;;;;;5076511;28;20077;-66
2023/08/24 05:59:12;;;;;;;14.90;7.82;;;15.40;99.90;;;;;;5075801;28;20047;-67
2023/08/24 06:01:38;;;;;;;15.52;9.57;;;15.50;99.90;;;;;;5075905;28;20067;-66
2023/08/24 06:04:11;;;;;;;13.88;8.52;;;15.50;99.90;;;;;;5094794;28;20036;-67
2023/08/24 06:06:37;;;;;;;12.82;7.80;;;15.50;99.90;;;;;;5093462;28;20123;-67
2023/08/24 06:09:06;;;;;;;11.43;7.65;;;15.60;99.90;;;;;;5059562;28;20043;-67
2023/08/24 06:11:35;;;;;;;12.13;7.28;;;15.60;99.90;;;;;;5075866;28;20036;-67
2023/08/24 06:14:01;;;;;;;12.85;7.38;;;15.70;99.90;;;;;;5075488;28;20040;-67
2023/08/24 06:16:28;;;;;;;10.65;7.35;;;15.80;99.90;;;;;;5075516;28;20047;-67
2023/08/24 06:18:54;;;;;;;14.10;7.65;;;15.90;99.90;;;;;;5094013;28;20097;-67
2023/08/24 06:21:20;;;;;;;13.18;7.55;;;15.90;99.90;;;;;;5075327;28;20488;-67
2023/08/24 06:23:47;;;;;;;14.63;8.30;;;16.00;99.90;;;;;;5075706;28;20092;-67
2023/08/24 06:26:13;;;;;;;12.43;7.47;;;16.10;99.90;;;;;;5075036;28;20044;-67
2023/08/24 06:28:39;;;;;;;15.23;7.85;;;16.20;99.90;;;;;;5065438;28;20491;-67
2023/08/24 06:31:07;;;;;;;12.23;6.85;;;16.30;99.90;;;;;;5094526;28;20109;-67
2023/08/24 06:33:34;;;;;;;10.32;6.82;;;16.30;99.90;;;;;;5076029;28;20047;-67
2023/08/24 06:36:01;;;;;;;12.18;7.65;;;16.40;99.90;;;;;;5092848;28;20684;-67
2023/08/24 06:38:26;;;;;;;13.38;7.38;;;16.50;99.90;;;;;;5085561;28;20045;-67
2023/08/24 06:40:52;;;;;;;15.40;7.97;;;16.60;99.90;;;;;;5071554;28;20036;-66
2023/08/24 06:43:18;;;;;;;11.18;7.35;;;16.70;99.90;;;;;;5063682;28;20131;-67
2023/08/24 06:45:46;;;;;;;11.38;7.72;;;16.70;99.90;;;;;;5075120;28;20485;-67
2023/08/24 06:48:12;;;;;;;13.93;7.95;;;16.90;99.90;;;;;;5074496;28;20040;-67
2023/08/24 06:50:38;;;;;;;11.65;7.15;;;16.90;99.90;;;;;;5070925;28;20059;-67
2023/08/24 06:53:04;;;;;;;11.75;7.60;;;17.00;99.90;;;;;;5069502;28;20136;-67
2023/08/24 06:55:30;;;;;;;9.52;6.68;;;17.20;99.90;;;;;;5062938;28;20468;-67
2023/08/24 06:57:56;;;;;;;11.13;7.28;;;17.30;99.90;;;;;;5051171;28;20465;-66
2023/08/24 07:00:22;;;;;;;10.23;6.32;;;17.40;99.90;;;;;;5068560;28;20095;-66
2023/08/24 07:02:49;;;;;;;12.52;7.05;;;17.50;99.90;;;;;;5069738;28;20482;-67
2023/08/24 07:05:18;;;;;;;9.13;6.22;;;17.60;99.90;;;;;;5068398;28;20420;-66
2023/08/24 07:07:45;;;;;;;11.73;6.47;;;17.70;99.90;;;;;;5069160;28;20036;-66
2023/08/24 07:10:11;;;;;;;8.80;5.88;;;17.70;99.90;;;;;;5068058;28;20494;-66
2023/08/24 07:12:40;;;;;;;13.32;5.95;;;17.80;99.90;;;;;;5070230;28;20476;-66
2023/08/24 07:15:07;;;;;;;11.65;5.72;;;17.90;99.90;;;;;;5068465;28;20058;-66
2023/08/24 07:17:32;;;;;;;10.98;5.05;;;18.00;99.90;;;;;;5069819;28;20135;-67
2023/08/24 07:19:58;;;;;;;11.52;5.18;;;18.10;99.90;;;;;;5070230;28;20115;-66
2023/08/24 07:22:26;;;;;;;7.65;4.53;;;18.20;99.90;;;;;;5068593;28;20064;-67
2023/08/24 07:24:52;;;;;;;9.18;4.50;;;18.30;99.90;;;;;;5069062;28;20382;-66
2023/08/24 07:27:18;;;;;;;6.95;4.20;;;18.40;99.90;;;;;;5069005;28;20469;-66
2023/08/24 07:29:44;;;;;;;5.72;3.45;;;18.40;99.90;;;;;;5069299;28;20051;-66
2023/08/24 07:32:09;;;;;;;7.20;3.65;;;18.60;99.90;;;;;;5069241;28;20048;-66
2023/08/24 07:34:35;;;;;;;7.50;3.58;;;18.70;99.90;;;;;;5068282;28;20048;-66
2023/08/24 07:37:01;;;;;;;7.40;4.00;;;18.80;99.90;;;;;;5068269;28;20151;-66
2023/08/24 07:39:26;;;;;;;7.70;3.53;;;18.80;99.90;;;;;;5066810;28;20408;-66
2023/08/24 07:41:52;;;;;;;6.97;3.85;;;18.90;99.90;;;;;;5064390;28;20127;-66
2023/08/24 07:44:18;;;;;;;7.10;3.42;;;19.00;99.90;;;;;;5067719;28;20485;-66
2023/08/24 07:46:44;;;;;;;7.38;3.38;;;19.10;99.90;;;;;;5069228;28;20037;-65
2023/08/24 07:49:09;;;;;;;5.63;3.17;;;19.20;99.90;;;;;;5060368;28;20047;-65
2023/08/24 07:51:36;;;;;;;6.38;3.50;;;19.30;99.90;;;;;;5044550;28;20485;-66
2023/08/24 07:54:04;;;;;;;8.40;3.40;;;19.30;99.90;;;;;;5050345;28;20090;-66
2023/08/24 07:56:30;;;;;;;6.78;3.00;;;19.40;99.90;;;;;;5052697;28;20079;-66
2023/08/24 07:58:55;;;;;;;8.60;2.92;;;19.50;99.90;;;;;;5050207;28;20072;-67
2023/08/24 08:01:21;;;;;;;9.13;3.22;;;19.60;99.90;;;;;;5049105;28;20045;-67
2023/08/24 08:03:47;;;;;;;5.07;2.97;;;19.60;99.90;;;;;;5056387;28;20048;-67
2023/08/24 08:06:13;;;;;;;5.13;2.70;;;19.60;99.90;;;;;;5047745;28;20037;-66
2023/08/24 08:08:39;;;;;;;7.47;2.70;;;19.60;99.90;;;;;;5049167;28;20155;-67
2023/08/24 08:11:05;;;;;;;5.72;2.55;;;19.70;99.90;;;;;;5048638;28;20167;-67
2023/08/24 08:13:31;;;;;;;7.93;3.33;;;19.80;99.90;;;;;;5047168;28;20044;-67
2023/08/24 08:16:07;;;;;;;7.35;2.88;;;19.90;99.90;;;;;;5030945;28;20053;-67
2023/08/24 08:18:33;;;;;;;6.97;2.80;;;20.00;99.90;;;;;;5046637;28;20048;-66
2023/08/24 08:20:59;;;;;;;8.13;3.28;;;20.10;99.90;;;;;;5051728;28;20453;-69
2023/08/24 08:23:25;;;;;;;8.68;3.30;;;20.20;99.90;;;;;;5061310;28;20069;-69
2023/08/24 08:25:51;;;;;;;6.78;3.67;;;20.20;99.90;;;;;;5049219;28;20058;-69
2023/08/24 08:28:20;;;;;;;9.25;4.22;;;20.30;99.90;;;;;;5057098;28;20493;-69
2023/08/24 08:30:47;;;;;;;6.22;3.58;;;20.40;99.90;;;;;;5048802;28;20128;-68
2023/08/24 08:33:13;;;;;;;8.07;3.97;;;20.50;99.90;;;;;;5053297;28;20049;-68
2023/08/24 08:35:40;;;;;;;8.55;3.88;;;20.60;99.90;;;;;;5054155;28;20039;-69
2023/08/24 08:38:07;;;;;;;9.90;4.88;;;20.60;99.90;;;;;;5070079;28;20037;-68
2023/08/24 08:40:37;;;;;;;10.93;4.78;;;20.70;99.90;;;;;;5055466;28;20120;-69
2023/08/24 08:43:03;;;;;;;8.43;4.90;;;20.90;99.90;;;;;;5052141;28;20041;-66
2023/08/24 08:45:29;;;;;;;7.82;5.60;;;21.00;99.90;;;;;;5034483;28;20044;-64
2023/08/24 08:48:00;;;;;;;9.88;5.97;;;21.10;99.90;;;;;;5049533;28;20116;-65
2023/08/24 08:50:26;;;;;;;9.88;6.10;;;21.20;99.90;;;;;;5050228;28;20033;-67
2023/08/24 08:52:51;;;;;;;9.52;5.65;;;21.10;99.90;;;;;;5066232;28;20611;-67
2023/08/24 08:55:18;;;;;;;14.00;6.90;;;21.10;99.90;;;;;;5068833;28;20150;-67
2023/08/24 08:57:48;;;;;;;11.55;6.32;;;21.10;99.90;;;;;;5069449;28;20089;-67
2023/08/24 09:00:18;;;;;;;10.57;6.18;;;21.20;99.90;;;;;;5052772;28;20060;-67
2023/08/24 09:02:45;;;;;;;14.50;6.47;;;21.30;99.90;;;;;;5069810;28;20503;-67
2023/08/24 09:05:12;;;;;;;9.00;5.30;;;21.40;99.90;;;;;;5071732;28;20045;-67
2023/08/24 09:07:40;;;;;;;9.40;5.28;;;21.50;99.90;;;;;;5073868;28;20076;-67
2023/08/24 09:10:07;;;;;;;8.50;5.57;;;21.60;99.90;;;;;;5073347;28;20043;-67
2023/08/24 09:12:33;;;;;;;10.38;6.20;;;21.70;99.90;;;;;;5074154;28;20045;-67
2023/08/24 09:14:59;;;;;;;11.38;5.93;;;21.80;99.90;;;;;;5057656;28;20052;-67
2023/08/24 09:17:25;;;;;;;12.45;5.90;;;21.90;99.90;;;;;;5056792;28;20044;-67
2023/08/24 09:19:53;;;;;;;11.05;5.30;;;21.90;99.90;;;;;;5075144;28;20037;-67
2023/08/24 09:22:19;;;;;;;10.90;5.38;;;21.80;99.90;;;;;;5057245;28;20048;-67
2023/08/24 09:24:48;;;;;;;12.23;5.85;;;21.80;99.90;;;;;;5072934;28;20047;-67
2023/08/24 09:27:21;;;;;;;9.40;6.18;;;21.80;99.90;;;;;;5073729;28;20455;-67
2023/08/24 09:29:49;;;;;;;8.55;5.30;;;21.70;99.90;;;;;;5073104;28;20032;-67
2023/08/24 09:32:15;;;;;;;10.98;5.43;;;21.60;99.90;;;;;;5073759;28;20496;-67
2023/08/24 09:34:41;;;;;;;9.65;5.75;;;21.60;99.90;;;;;;5073690;28;20043;-67
2023/08/24 09:37:15;;;;;;;7.75;4.88;;;21.50;99.90;;;;;;5074012;28;20068;-67
2023/08/24 09:39:41;;;;;;;11.23;5.80;;;21.50;99.90;;;;;;5075123;28;20044;-67
2023/08/24 09:42:07;;;;;;;8.75;5.10;;;21.40;99.90;;;;;;5073507;28;20056;-67
2023/08/24 09:44:32;;;;;;;9.27;5.13;;;21.40;99.90;;;;;;5072521;28;20037;-67
2023/08/24 09:46:59;;;;;;;10.52;5.20;;;21.40;99.90;;;;;;5074882;28;20051;-67
2023/08/24 09:49:26;;;;;;;10.23;6.10;;;21.30;99.90;;;;;;5073560;28;20420;-67
2023/08/24 09:51:59;;;;;;;8.25;4.97;;;21.30;99.90;;;;;;5072325;28;20059;-67
2023/08/24 09:54:29;;;;;;;11.43;5.45;;;21.20;99.90;;;;;;5073319;28;20047;-67
2023/08/24 09:56:56;;;;;;;9.05;4.57;;;21.20;99.90;;;;;;5073967;28;20095;-67
2023/08/24 09:59:24;;;;;;;8.98;4.60;;;21.10;99.90;;;;;;5072581;28;20044;-67
2023/08/24 10:01:51;;;;;;;10.27;4.90;;;21.10;99.90;;;;;;5073220;28;20227;-67
2023/08/24 10:04:24;;;;;;;10.80;5.00;;;21.00;99.90;;;;;;5073263;28;20122;-67
2023/08/24 10:06:56;;;;;;;8.77;4.45;;;20.90;99.90;;;;;;5072371;28;20048;-67
2023/08/24 10:09:31;;;;;;;12.10;4.20;;;20.90;99.90;;;;;;5056602;28;20046;-68
2023/08/24 10:12:03;;;;;;;7.25;4.05;;;20.80;99.90;;;;;;5072381;28;20033;-67
2023/08/24 10:14:52;;;;;;;8.48;4.25;;;20.80;99.90;;;;;;5056005;28;20047;-67
2023/08/24 10:17:18;;;;;;;10.52;5.50;;;20.70;99.90;;;;;;5071612;28;20094;-67
2023/08/24 10:19:45;;;;;;;8.85;5.22;;;20.70;99.90;;;;;;5055286;28;20045;-67
2023/08/24 10:22:12;;;;;;;11.05;4.47;;;20.60;99.90;;;;;;5072824;28;20044;-67
2023/08/24 10:24:38;;;;;;;10.20;5.28;;;20.60;99.90;;;;;;5074200;28;20123;-67
2023/08/24 10:27:05;;;;;;;7.97;4.45;;;20.60;99.90;;;;;;5055307;28;20041;-67
2023/08/24 10:29:31;;;;;;;8.57;5.45;;;20.50;99.90;;;;;;5072548;28;20489;-67
2023/08/24 10:31:57;;;;;;;10.73;5.78;;;20.50;99.90;;;;;;5071892;28;20123;-63
2023/08/24 10:34:23;;;;;;;12.85;5.45;;;20.40;99.90;;;;;;5035131;28;20120;-62
2023/08/24 10:36:49;;;;;;;9.77;5.90;;;20.40;99.90;;;;;;5067231;28;20398;-64
2023/08/24 10:39:15;;;;;;;15.48;6.05;;;20.40;99.90;;;;;;5073611;28;20115;-63
2023/08/24 10:41:48;;;;;;;9.32;5.28;;;20.40;99.90;;;;;;5054882;28;20113;-64
2023/08/24 10:44:37;;;;;;;8.93;5.63;;;20.40;99.90;;;;;;5043019;28;20099;-63
2023/08/24 10:47:12;;;;;;;9.85;5.93;;;20.30;99.90;;;;;;5071606;28;20792;-64
2023/08/24 10:49:38;;;;;;;9.60;5.38;;;20.30;99.90;;;;;;5073617;28;20037;-64
2023/08/24 10:52:40;;;;;;;11.38;6.25;;;20.30;99.90;;;;;;5082938;28;20135;-64
2023/08/24 10:55:23;;;;;;;10.57;5.97;;;20.30;99.90;;;;;;5057527;28;20408;-64
2023/08/24 10:57:59;;;;;;;9.10;6.43;;;20.20;99.90;;;;;;5057521;28;20036;-64
2023/08/24 11:00:29;;;;;;;15.05;6.50;;;20.10;99.90;;;;;;5055022;28;20040;-64
2023/08/24 11:02:56;;;;;;;14.07;7.30;;;20.10;99.90;;;;;;5087654;28;20097;-64
2023/08/24 11:05:24;;;;;;;15.02;8.35;;;20.10;99.90;;;;;;5051647;28;20044;-64
2023/08/24 11:08:09;;;;;;;13.75;8.18;;;20.00;99.90;;;;;;5078979;28;20119;-64
2023/08/24 11:10:46;;;;;;;11.15;6.95;;;19.90;99.90;;;;;;5070144;28;20042;-65
2023/08/24 11:13:13;;;;;;;11.25;7.72;;;19.90;99.90;;;;;;5070111;28;20048;-65
2023/08/24 11:15:41;;;;;;;14.20;7.97;;;19.90;99.90;;;;;;5088867;28;20151;-65
2023/08/24 11:18:23;;;;;;;11.00;7.72;;;19.90;99.90;;;;;;5054444;28;20079;-65
2023/08/24 11:20:54;;;;;;;11.80;8.05;;;19.90;99.90;;;;;;5051726;28;20101;-65
2023/08/24 11:23:21;;;;;;;12.30;8.20;;;19.90;99.90;;;;;;5072394;28;20071;-65
2023/08/24 11:25:51;;;;;;;17.52;8.90;;;19.80;99.90;;;;;;5060099;28;20094;-65
2023/08/24 11:28:19;;;;;;;12.93;8.13;;;19.80;99.90;;;;;;5082413;28;20644;-65
2023/08/24 11:30:45;;;;;;;12.55;9.02;;;19.80;99.90;;;;;;5063841;28;20129;-65
2023/08/24 11:33:13;;;;;;;11.82;8.40;;;19.80;99.90;;;;;;5060739;28;20462;-65
2023/08/24 11:35:46;;;;;;;13.15;8.80;;;19.80;99.90;;;;;;5071111;28;20091;-65
2023/08/24 11:38:12;;;;;;;14.23;9.75;;;19.80;99.90;;;;;;5069227;28;20052;-65
2023/08/24 11:40:39;;;;;;;13.38;8.82;;;19.90;99.90;;;;;;5069977;28;20082;-65
2023/08/24 11:43:05;;;;;;;12.48;9.30;;;19.90;99.90;;;;;;5090109;28;20040;-65
2023/08/24 11:45:33;;;;;;;14.05;8.95;;;19.90;99.90;;;;;;5054011;28;20048;-65
2023/08/24 11:48:04;;;;;;;19.23;11.38;;;19.90;99.90;;;;;;5070691;28;20047;-66
2023/08/24 11:50:30;;;;;;;17.45;11.20;;;19.90;99.90;;;;;;5070227;28;20562;-65
2023/08/24 11:52:56;;;;;;;12.93;10.02;;;19.90;99.90;;;;;;5089355;28;20138;-65
2023/08/24 11:55:23;;;;;;;15.48;11.27;;;19.90;99.90;;;;;;5067778;28;20044;-65
2023/08/24 11:57:50;;;;;;;16.05;12.05;;;19.90;99.90;;;;;;5069202;28;20210;-65
2023/08/24 12:00:16;;;;;;;17.33;10.43;;;19.90;99.90;;;;;;5069858;28;20510;-65
2023/08/24 12:02:43;;;;;;;13.82;10.35;;;19.90;99.90;;;;;;5089483;28;20048;-65
2023/08/24 12:05:24;;;;;;;13.20;10.32;;;19.90;99.90;;;;;;5088372;28;20093;-65
2023/08/24 12:07:51;;;;;;;16.88;11.98;;;19.90;99.90;;;;;;5073953;28;20093;-65
2023/08/24 12:10:17;;;;;;;17.67;12.82;;;19.90;99.90;;;;;;5089401;28;20038;-65
2023/08/24 12:12:43;;;;;;;19.90;14.90;;;19.90;99.90;;;;;;5054237;28;20036;-65
2023/08/24 12:15:16;;;;;;;23.10;14.63;;;19.90;99.90;;;;;;5071219;28;20477;-65
2023/08/24 12:17:43;;;;;;;20.50;14.88;;;20.00;99.90;;;;;;5056896;28;20044;-65
2023/08/24 12:20:21;;;;;;;16.60;13.73;;;20.00;99.90;;;;;;5033295;28;20041;-65
2023/08/24 12:22:54;;;;;;;19.15;15.05;;;20.10;99.90;;;;;;5060510;28;20416;-65
2023/08/24 12:25:24;;;;;;;15.60;13.85;;;20.00;99.90;;;;;;5069267;28;20055;-65
2023/08/24 12:27:51;;;;;;;15.80;13.48;;;20.10;99.90;;;;;;5062992;28;20050;-65
2023/08/24 12:30:18;;;;;;;14.48;11.25;;;20.10;99.90;;;;;;5067664;28;20513;-65
2023/08/24 12:32:45;;;;;;;17.95;12.80;;;20.10;99.90;;;;;;5070605;28;20036;-66
2023/08/24 12:35:12;;;;;;;18.33;14.18;;;20.20;99.90;;;;;;5089594;28;20075;-66
2023/08/24 12:37:37;;;;;;;15.05;11.48;;;20.10;99.90;;;;;;5071259;28;20044;-65
2023/08/24 12:40:07;;;;;;;15.25;11.93;;;20.20;99.90;;;;;;5091252;28;20755;-65
2023/08/24 12:42:33;;;;;;;12.77;9.98;;;20.20;99.90;;;;;;5056244;28;20162;-65